sensor_id;sensor_type;location;lat;lon;timestamp;P1;durP1;ratioP1;P2;durP2;ratioP2
77518;SDS011;66629;47.346;19.038;2023-05-27T00:00:03;6.93;;;4.88;;
77518;SDS011;66629;47.346;19.038;2023-05-27T00:02:30;7.55;;;5.63;;
77518;SDS011;66629;47.346;19.038;2023-05-27T00:04:55;8.80;;;5.85;;
77518;SDS011;66629;47.346;19.038;2023-05-27T00:07:20;9.20;;;5.65;;
77518;SDS011;66629;47.346;19.038;2023-05-27T00:09:46;7.68;;;5.97;;
77518;SDS011;66629;47.346;19.038;2023-05-27T00:12:11;7.45;;;5.40;;
77518;SDS011;66629;47.346;19.038;2023-05-27T00:14:37;9.18;;;6.10;;
77518;SDS011;66629;47.346;19.038;2023-05-27T00:17:02;9.18;;;6.13;;
77518;SDS011;66629;47.346;19.038;2023-05-27T00:19:29;7.32;;;5.93;;
77518;SDS011;66629;47.346;19.038;2023-05-27T00:21:55;8.10;;;6.07;;
77518;SDS011;66629;47.346;19.038;2023-05-27T00:24:21;7.97;;;6.45;;
77518;SDS011;66629;47.346;19.038;2023-05-27T00:26:47;9.35;;;6.65;;
77518;SDS011;66629;47.346;19.038;2023-05-27T00:29:13;9.55;;;6.65;;
77518;SDS011;66629;47.346;19.038;2023-05-27T00:31:40;9.05;;;6.65;;
77518;SDS011;66629;47.346;19.038;2023-05-27T00:34:06;8.32;;;6.55;;
77518;SDS011;66629;47.346;19.038;2023-05-27T00:36:31;8.27;;;6.60;;
77518;SDS011;66629;47.346;19.038;2023-05-27T00:38:57;8.52;;;6.28;;
77518;SDS011;66629;47.346;19.038;2023-05-27T00:41:22;10.45;;;6.93;;
77518;SDS011;66629;47.346;19.038;2023-05-27T00:43:48;9.80;;;6.85;;
77518;SDS011;66629;47.346;19.038;2023-05-27T00:46:13;9.32;;;6.65;;
77518;SDS011;66629;47.346;19.038;2023-05-27T00:48:40;7.55;;;6.75;;
77518;SDS011;66629;47.346;19.038;2023-05-27T00:51:05;8.15;;;6.97;;
77518;SDS011;66629;47.346;19.038;2023-05-27T00:53:33;9.75;;;6.55;;
77518;SDS011;66629;47.346;19.038;2023-05-27T00:56:03;8.43;;;6.35;;
77518;SDS011;66629;47.346;19.038;2023-05-27T00:58:29;8.98;;;6.22;;
77518;SDS011;66629;47.346;19.038;2023-05-27T01:00:55;10.13;;;6.32;;
77518;SDS011;66629;47.346;19.038;2023-05-27T01:03:21;7.97;;;6.05;;
77518;SDS011;66629;47.346;19.038;2023-05-27T01:05:46;8.63;;;6.55;;
77518;SDS011;66629;47.346;19.038;2023-05-27T01:08:21;8.57;;;6.72;;
77518;SDS011;66629;47.346;19.038;2023-05-27T01:10:53;9.73;;;6.40;;
77518;SDS011;66629;47.346;19.038;2023-05-27T01:16:01;9.20;;;6.72;;
77518;SDS011;66629;47.346;19.038;2023-05-27T01:18:30;8.15;;;6.60;;
77518;SDS011;66629;47.346;19.038;2023-05-27T01:21:10;7.80;;;6.35;;
77518;SDS011;66629;47.346;19.038;2023-05-27T01:23:42;8.07;;;7.05;;
77518;SDS011;66629;47.346;19.038;2023-05-27T01:26:07;9.77;;;7.15;;
77518;SDS011;66629;47.346;19.038;2023-05-27T01:28:33;10.05;;;6.70;;
77518;SDS011;66629;47.346;19.038;2023-05-27T01:31:19;9.85;;;6.53;;
77518;SDS011;66629;47.346;19.038;2023-05-27T01:33:49;10.77;;;6.72;;
77518;SDS011;66629;47.346;19.038;2023-05-27T01:36:23;8.75;;;6.70;;
77518;SDS011;66629;47.346;19.038;2023-05-27T01:38:51;8.77;;;7.22;;
77518;SDS011;66629;47.346;19.038;2023-05-27T01:41:17;10.10;;;6.82;;
77518;SDS011;66629;47.346;19.038;2023-05-27T01:43:44;7.78;;;6.30;;
77518;SDS011;66629;47.346;19.038;2023-05-27T01:46:10;9.40;;;6.97;;
77518;SDS011;66629;47.346;19.038;2023-05-27T01:48:35;9.68;;;7.75;;
77518;SDS011;66629;47.346;19.038;2023-05-27T01:51:01;9.77;;;7.30;;
77518;SDS011;66629;47.346;19.038;2023-05-27T01:53:26;11.90;;;6.72;;
77518;SDS011;66629;47.346;19.038;2023-05-27T01:55:52;8.45;;;6.80;;
77518;SDS011;66629;47.346;19.038;2023-05-27T01:58:17;9.05;;;6.90;;
77518;SDS011;66629;47.346;19.038;2023-05-27T02:00:42;10.45;;;6.78;;
77518;SDS011;66629;47.346;19.038;2023-05-27T02:03:08;10.57;;;6.88;;
77518;SDS011;66629;47.346;19.038;2023-05-27T02:05:33;9.27;;;6.90;;
77518;SDS011;66629;47.346;19.038;2023-05-27T02:08:00;8.77;;;6.72;;
77518;SDS011;66629;47.346;19.038;2023-05-27T02:10:26;8.80;;;7.00;;
77518;SDS011;66629;47.346;19.038;2023-05-27T02:12:52;8.75;;;6.90;;
77518;SDS011;66629;47.346;19.038;2023-05-27T02:15:17;8.15;;;6.80;;
77518;SDS011;66629;47.346;19.038;2023-05-27T02:17:43;8.93;;;7.15;;
77518;SDS011;66629;47.346;19.038;2023-05-27T02:20:11;11.75;;;7.32;;
77518;SDS011;66629;47.346;19.038;2023-05-27T02:22:37;9.13;;;6.68;;
77518;SDS011;66629;47.346;19.038;2023-05-27T02:25:02;9.25;;;6.65;;
77518;SDS011;66629;47.346;19.038;2023-05-27T02:27:28;9.63;;;7.05;;
77518;SDS011;66629;47.346;19.038;2023-05-27T02:29:53;10.02;;;7.15;;
77518;SDS011;66629;47.346;19.038;2023-05-27T02:32:18;9.20;;;7.10;;
77518;SDS011;66629;47.346;19.038;2023-05-27T02:34:44;9.38;;;7.35;;
77518;SDS011;66629;47.346;19.038;2023-05-27T02:37:09;9.40;;;6.95;;
77518;SDS011;66629;47.346;19.038;2023-05-27T02:39:35;10.15;;;7.57;;
77518;SDS011;66629;47.346;19.038;2023-05-27T02:42:00;8.82;;;6.63;;
77518;SDS011;66629;47.346;19.038;2023-05-27T02:44:26;8.77;;;6.95;;
77518;SDS011;66629;47.346;19.038;2023-05-27T02:46:51;8.98;;;7.07;;
77518;SDS011;66629;47.346;19.038;2023-05-27T02:49:17;9.75;;;7.05;;
77518;SDS011;66629;47.346;19.038;2023-05-27T02:51:43;9.00;;;7.28;;
77518;SDS011;66629;47.346;19.038;2023-05-27T02:54:08;9.35;;;7.43;;
77518;SDS011;66629;47.346;19.038;2023-05-27T02:56:34;8.68;;;6.70;;
77518;SDS011;66629;47.346;19.038;2023-05-27T02:58:59;10.15;;;7.38;;
77518;SDS011;66629;47.346;19.038;2023-05-27T03:01:24;9.55;;;7.53;;
77518;SDS011;66629;47.346;19.038;2023-05-27T03:03:50;11.13;;;6.80;;
77518;SDS011;66629;47.346;19.038;2023-05-27T03:06:16;9.23;;;6.82;;
77518;SDS011;66629;47.346;19.038;2023-05-27T03:08:41;11.40;;;7.53;;
77518;SDS011;66629;47.346;19.038;2023-05-27T03:11:06;10.38;;;7.20;;
77518;SDS011;66629;47.346;19.038;2023-05-27T03:13:32;11.85;;;7.85;;
77518;SDS011;66629;47.346;19.038;2023-05-27T03:15:57;8.65;;;6.93;;
77518;SDS011;66629;47.346;19.038;2023-05-27T03:18:23;11.18;;;7.00;;
77518;SDS011;66629;47.346;19.038;2023-05-27T03:20:48;9.57;;;6.88;;
77518;SDS011;66629;47.346;19.038;2023-05-27T03:23:15;9.50;;;6.97;;
77518;SDS011;66629;47.346;19.038;2023-05-27T03:25:40;9.50;;;7.47;;
77518;SDS011;66629;47.346;19.038;2023-05-27T03:28:06;9.80;;;7.53;;
77518;SDS011;66629;47.346;19.038;2023-05-27T03:30:31;9.88;;;7.72;;
77518;SDS011;66629;47.346;19.038;2023-05-27T03:32:57;9.40;;;6.80;;
77518;SDS011;66629;47.346;19.038;2023-05-27T03:35:23;9.68;;;6.63;;
77518;SDS011;66629;47.346;19.038;2023-05-27T03:37:48;8.55;;;6.65;;
77518;SDS011;66629;47.346;19.038;2023-05-27T03:40:13;12.48;;;7.28;;
77518;SDS011;66629;47.346;19.038;2023-05-27T03:42:39;9.57;;;7.35;;
77518;SDS011;66629;47.346;19.038;2023-05-27T03:45:04;9.30;;;6.70;;
77518;SDS011;66629;47.346;19.038;2023-05-27T03:47:30;10.80;;;7.07;;
77518;SDS011;66629;47.346;19.038;2023-05-27T03:49:56;10.75;;;7.22;;
77518;SDS011;66629;47.346;19.038;2023-05-27T03:52:21;8.85;;;7.32;;
77518;SDS011;66629;47.346;19.038;2023-05-27T03:54:47;11.15;;;7.32;;
77518;SDS011;66629;47.346;19.038;2023-05-27T03:57:12;9.10;;;7.20;;
77518;SDS011;66629;47.346;19.038;2023-05-27T03:59:37;10.55;;;7.03;;
77518;SDS011;66629;47.346;19.038;2023-05-27T04:02:03;10.45;;;6.57;;
77518;SDS011;66629;47.346;19.038;2023-05-27T04:04:29;9.45;;;7.07;;
77518;SDS011;66629;47.346;19.038;2023-05-27T04:06:54;10.98;;;7.03;;
77518;SDS011;66629;47.346;19.038;2023-05-27T04:09:20;10.35;;;7.18;;
77518;SDS011;66629;47.346;19.038;2023-05-27T04:11:46;9.77;;;6.63;;
77518;SDS011;66629;47.346;19.038;2023-05-27T04:14:11;9.75;;;6.78;;
77518;SDS011;66629;47.346;19.038;2023-05-27T04:16:37;9.10;;;7.00;;
77518;SDS011;66629;47.346;19.038;2023-05-27T04:19:03;10.85;;;7.50;;
77518;SDS011;66629;47.346;19.038;2023-05-27T04:21:28;10.45;;;7.10;;
77518;SDS011;66629;47.346;19.038;2023-05-27T04:23:54;12.70;;;7.07;;
77518;SDS011;66629;47.346;19.038;2023-05-27T04:26:19;10.90;;;7.10;;
77518;SDS011;66629;47.346;19.038;2023-05-27T04:28:45;9.70;;;6.50;;
77518;SDS011;66629;47.346;19.038;2023-05-27T04:31:11;10.90;;;6.72;;
77518;SDS011;66629;47.346;19.038;2023-05-27T04:33:41;11.38;;;6.38;;
77518;SDS011;66629;47.346;19.038;2023-05-27T04:36:07;8.77;;;6.40;;
77518;SDS011;66629;47.346;19.038;2023-05-27T04:38:32;9.77;;;6.20;;
77518;SDS011;66629;47.346;19.038;2023-05-27T04:40:58;9.50;;;6.80;;
77518;SDS011;66629;47.346;19.038;2023-05-27T04:43:24;10.43;;;6.55;;
77518;SDS011;66629;47.346;19.038;2023-05-27T04:45:51;9.68;;;6.55;;
77518;SDS011;66629;47.346;19.038;2023-05-27T04:48:17;10.68;;;6.55;;
77518;SDS011;66629;47.346;19.038;2023-05-27T04:50:43;9.50;;;6.38;;
77518;SDS011;66629;47.346;19.038;2023-05-27T04:53:08;8.95;;;6.30;;
77518;SDS011;66629;47.346;19.038;2023-05-27T04:55:34;10.57;;;5.95;;
77518;SDS011;66629;47.346;19.038;2023-05-27T04:58:01;9.35;;;6.13;;
77518;SDS011;66629;47.346;19.038;2023-05-27T05:00:28;12.27;;;6.40;;
77518;SDS011;66629;47.346;19.038;2023-05-27T05:03:13;10.13;;;6.47;;
77518;SDS011;66629;47.346;19.038;2023-05-27T05:05:45;9.68;;;6.45;;
77518;SDS011;66629;47.346;19.038;2023-05-27T05:08:12;9.43;;;6.38;;
77518;SDS011;66629;47.346;19.038;2023-05-27T05:10:38;10.48;;;5.60;;
77518;SDS011;66629;47.346;19.038;2023-05-27T05:13:04;11.18;;;6.13;;
77518;SDS011;66629;47.346;19.038;2023-05-27T05:15:29;8.23;;;5.88;;
77518;SDS011;66629;47.346;19.038;2023-05-27T05:17:56;10.10;;;5.80;;
77518;SDS011;66629;47.346;19.038;2023-05-27T05:20:21;8.05;;;5.90;;
77518;SDS011;66629;47.346;19.038;2023-05-27T05:22:46;11.52;;;5.78;;
77518;SDS011;66629;47.346;19.038;2023-05-27T05:25:13;8.73;;;5.90;;
77518;SDS011;66629;47.346;19.038;2023-05-27T05:27:39;8.90;;;6.13;;
77518;SDS011;66629;47.346;19.038;2023-05-27T05:30:05;12.82;;;7.03;;
77518;SDS011;66629;47.346;19.038;2023-05-27T05:32:31;10.60;;;6.32;;
77518;SDS011;66629;47.346;19.038;2023-05-27T05:34:56;9.88;;;5.60;;
77518;SDS011;66629;47.346;19.038;2023-05-27T05:37:21;8.63;;;5.80;;
77518;SDS011;66629;47.346;19.038;2023-05-27T05:39:47;8.38;;;6.05;;
77518;SDS011;66629;47.346;19.038;2023-05-27T05:42:12;13.10;;;6.40;;
77518;SDS011;66629;47.346;19.038;2023-05-27T05:44:38;11.00;;;5.95;;
77518;SDS011;66629;47.346;19.038;2023-05-27T05:47:04;10.18;;;5.78;;
77518;SDS011;66629;47.346;19.038;2023-05-27T05:49:29;8.63;;;5.55;;
77518;SDS011;66629;47.346;19.038;2023-05-27T05:51:55;8.52;;;5.72;;
77518;SDS011;66629;47.346;19.038;2023-05-27T05:54:20;7.25;;;5.45;;
77518;SDS011;66629;47.346;19.038;2023-05-27T05:56:46;9.65;;;5.93;;
77518;SDS011;66629;47.346;19.038;2023-05-27T05:59:11;7.70;;;5.32;;
77518;SDS011;66629;47.346;19.038;2023-05-27T06:01:36;9.10;;;5.50;;
77518;SDS011;66629;47.346;19.038;2023-05-27T06:04:02;8.80;;;5.72;;
77518;SDS011;66629;47.346;19.038;2023-05-27T06:06:31;12.05;;;5.60;;
77518;SDS011;66629;47.346;19.038;2023-05-27T06:08:57;9.50;;;5.78;;
77518;SDS011;66629;47.346;19.038;2023-05-27T06:11:22;8.40;;;5.22;;
77518;SDS011;66629;47.346;19.038;2023-05-27T06:13:48;9.02;;;5.18;;
77518;SDS011;66629;47.346;19.038;2023-05-27T06:16:13;9.20;;;5.45;;
77518;SDS011;66629;47.346;19.038;2023-05-27T06:18:38;8.07;;;5.20;;
77518;SDS011;66629;47.346;19.038;2023-05-27T06:21:04;8.20;;;5.45;;
77518;SDS011;66629;47.346;19.038;2023-05-27T06:23:29;7.50;;;5.60;;
77518;SDS011;66629;47.346;19.038;2023-05-27T06:25:55;10.68;;;5.45;;
77518;SDS011;66629;47.346;19.038;2023-05-27T06:28:20;11.57;;;5.10;;
77518;SDS011;66629;47.346;19.038;2023-05-27T06:30:45;9.25;;;5.50;;
77518;SDS011;66629;47.346;19.038;2023-05-27T06:33:11;15.73;;;5.72;;
77518;SDS011;66629;47.346;19.038;2023-05-27T06:35:36;19.50;;;7.30;;
77518;SDS011;66629;47.346;19.038;2023-05-27T06:38:02;14.40;;;5.45;;
77518;SDS011;66629;47.346;19.038;2023-05-27T06:40:27;8.23;;;5.18;;
77518;SDS011;66629;47.346;19.038;2023-05-27T06:42:53;9.80;;;4.97;;
77518;SDS011;66629;47.346;19.038;2023-05-27T06:45:19;11.95;;;5.30;;
77518;SDS011;66629;47.346;19.038;2023-05-27T06:47:45;7.40;;;5.10;;
77518;SDS011;66629;47.346;19.038;2023-05-27T06:50:10;10.23;;;5.25;;
77518;SDS011;66629;47.346;19.038;2023-05-27T06:52:36;9.18;;;5.32;;
77518;SDS011;66629;47.346;19.038;2023-05-27T06:55:01;9.85;;;5.00;;
77518;SDS011;66629;47.346;19.038;2023-05-27T06:57:27;9.88;;;4.95;;
77518;SDS011;66629;47.346;19.038;2023-05-27T06:59:52;8.68;;;4.30;;
77518;SDS011;66629;47.346;19.038;2023-05-27T07:02:19;9.90;;;5.20;;
77518;SDS011;66629;47.346;19.038;2023-05-27T07:04:44;7.78;;;4.57;;
77518;SDS011;66629;47.346;19.038;2023-05-27T07:07:10;7.80;;;5.43;;
77518;SDS011;66629;47.346;19.038;2023-05-27T07:09:35;8.80;;;4.82;;
77518;SDS011;66629;47.346;19.038;2023-05-27T07:12:01;10.68;;;5.60;;
77518;SDS011;66629;47.346;19.038;2023-05-27T07:14:26;8.55;;;4.68;;
77518;SDS011;66629;47.346;19.038;2023-05-27T07:16:52;10.07;;;5.05;;
77518;SDS011;66629;47.346;19.038;2023-05-27T07:19:17;9.13;;;5.32;;
77518;SDS011;66629;47.346;19.038;2023-05-27T07:21:42;7.53;;;4.78;;
77518;SDS011;66629;47.346;19.038;2023-05-27T07:24:08;12.32;;;4.97;;
77518;SDS011;66629;47.346;19.038;2023-05-27T07:26:33;7.70;;;4.95;;
77518;SDS011;66629;47.346;19.038;2023-05-27T07:28:59;11.48;;;4.38;;
77518;SDS011;66629;47.346;19.038;2023-05-27T07:31:26;7.47;;;4.93;;
77518;SDS011;66629;47.346;19.038;2023-05-27T07:33:52;6.85;;;4.50;;
77518;SDS011;66629;47.346;19.038;2023-05-27T07:36:18;7.68;;;4.72;;
77518;SDS011;66629;47.346;19.038;2023-05-27T07:38:43;7.90;;;4.70;;
77518;SDS011;66629;47.346;19.038;2023-05-27T07:41:09;9.20;;;4.93;;
77518;SDS011;66629;47.346;19.038;2023-05-27T07:43:35;9.32;;;4.68;;
77518;SDS011;66629;47.346;19.038;2023-05-27T07:46:01;8.70;;;4.68;;
77518;SDS011;66629;47.346;19.038;2023-05-27T07:48:27;10.02;;;4.82;;
77518;SDS011;66629;47.346;19.038;2023-05-27T07:50:53;9.63;;;4.13;;
77518;SDS011;66629;47.346;19.038;2023-05-27T07:53:19;8.13;;;4.85;;
77518;SDS011;66629;47.346;19.038;2023-05-27T07:55:44;8.25;;;4.55;;
77518;SDS011;66629;47.346;19.038;2023-05-27T07:58:09;6.50;;;4.32;;
77518;SDS011;66629;47.346;19.038;2023-05-27T08:00:35;11.48;;;4.43;;
77518;SDS011;66629;47.346;19.038;2023-05-27T08:03:00;11.07;;;4.72;;
77518;SDS011;66629;47.346;19.038;2023-05-27T08:05:26;14.35;;;4.57;;
77518;SDS011;66629;47.346;19.038;2023-05-27T08:07:51;10.18;;;4.50;;
77518;SDS011;66629;47.346;19.038;2023-05-27T08:10:16;6.65;;;4.15;;
77518;SDS011;66629;47.346;19.038;2023-05-27T08:12:42;8.98;;;4.53;;
77518;SDS011;66629;47.346;19.038;2023-05-27T08:15:08;8.52;;;4.10;;
77518;SDS011;66629;47.346;19.038;2023-05-27T08:17:33;6.32;;;3.80;;
77518;SDS011;66629;47.346;19.038;2023-05-27T08:19:59;5.82;;;3.65;;
77518;SDS011;66629;47.346;19.038;2023-05-27T08:22:24;7.65;;;4.50;;
77518;SDS011;66629;47.346;19.038;2023-05-27T08:24:50;8.32;;;4.40;;
77518;SDS011;66629;47.346;19.038;2023-05-27T08:27:16;5.78;;;3.83;;
77518;SDS011;66629;47.346;19.038;2023-05-27T08:29:42;8.40;;;4.20;;
77518;SDS011;66629;47.346;19.038;2023-05-27T08:32:08;6.35;;;3.65;;
77518;SDS011;66629;47.346;19.038;2023-05-27T08:34:34;11.73;;;4.68;;
77518;SDS011;66629;47.346;19.038;2023-05-27T08:36:59;25.08;;;8.52;;
77518;SDS011;66629;47.346;19.038;2023-05-27T08:39:25;14.60;;;5.63;;
77518;SDS011;66629;47.346;19.038;2023-05-27T08:41:52;9.48;;;4.22;;
77518;SDS011;66629;47.346;19.038;2023-05-27T08:44:20;7.20;;;3.85;;
77518;SDS011;66629;47.346;19.038;2023-05-27T08:46:48;7.43;;;4.25;;
77518;SDS011;66629;47.346;19.038;2023-05-27T08:49:14;10.98;;;5.22;;
77518;SDS011;66629;47.346;19.038;2023-05-27T08:51:40;7.00;;;4.22;;
77518;SDS011;66629;47.346;19.038;2023-05-27T08:54:07;5.30;;;3.83;;
77518;SDS011;66629;47.346;19.038;2023-05-27T08:56:33;7.82;;;4.45;;
77518;SDS011;66629;47.346;19.038;2023-05-27T08:59:00;7.45;;;4.07;;
77518;SDS011;66629;47.346;19.038;2023-05-27T09:01:26;7.25;;;4.13;;
77518;SDS011;66629;47.346;19.038;2023-05-27T09:03:54;7.80;;;4.35;;
77518;SDS011;66629;47.346;19.038;2023-05-27T09:06:20;9.85;;;4.30;;
77518;SDS011;66629;47.346;19.038;2023-05-27T09:08:46;5.35;;;3.80;;
77518;SDS011;66629;47.346;19.038;2023-05-27T09:11:21;8.73;;;4.43;;
77518;SDS011;66629;47.346;19.038;2023-05-27T09:13:47;7.72;;;4.15;;
77518;SDS011;66629;47.346;19.038;2023-05-27T09:16:13;5.85;;;3.75;;
77518;SDS011;66629;47.346;19.038;2023-05-27T09:18:39;7.93;;;4.55;;
77518;SDS011;66629;47.346;19.038;2023-05-27T09:21:06;8.85;;;4.10;;
77518;SDS011;66629;47.346;19.038;2023-05-27T09:23:36;8.75;;;4.20;;
77518;SDS011;66629;47.346;19.038;2023-05-27T09:26:06;9.85;;;4.07;;
77518;SDS011;66629;47.346;19.038;2023-05-27T09:28:36;7.45;;;3.80;;
77518;SDS011;66629;47.346;19.038;2023-05-27T09:31:06;7.68;;;4.32;;
77518;SDS011;66629;47.346;19.038;2023-05-27T09:33:33;9.93;;;3.58;;
77518;SDS011;66629;47.346;19.038;2023-05-27T09:36:00;8.23;;;4.00;;
77518;SDS011;66629;47.346;19.038;2023-05-27T09:38:30;6.80;;;3.67;;
77518;SDS011;66629;47.346;19.038;2023-05-27T09:43:25;6.35;;;4.18;;
77518;SDS011;66629;47.346;19.038;2023-05-27T09:45:52;7.82;;;4.10;;
77518;SDS011;66629;47.346;19.038;2023-05-27T09:48:20;7.40;;;4.38;;
77518;SDS011;66629;47.346;19.038;2023-05-27T09:50:47;7.65;;;4.63;;
77518;SDS011;66629;47.346;19.038;2023-05-27T09:53:14;7.70;;;4.63;;
77518;SDS011;66629;47.346;19.038;2023-05-27T09:55:42;9.80;;;4.65;;
77518;SDS011;66629;47.346;19.038;2023-05-27T09:58:08;6.80;;;4.63;;
77518;SDS011;66629;47.346;19.038;2023-05-27T10:00:34;7.50;;;4.07;;
77518;SDS011;66629;47.346;19.038;2023-05-27T10:03:01;7.13;;;4.75;;
77518;SDS011;66629;47.346;19.038;2023-05-27T10:05:28;8.45;;;4.07;;
77518;SDS011;66629;47.346;19.038;2023-05-27T10:07:55;7.05;;;4.30;;
77518;SDS011;66629;47.346;19.038;2023-05-27T10:10:20;6.60;;;4.03;;
77518;SDS011;66629;47.346;19.038;2023-05-27T10:12:47;7.72;;;4.30;;
77518;SDS011;66629;47.346;19.038;2023-05-27T10:15:24;9.75;;;4.25;;
77518;SDS011;66629;47.346;19.038;2023-05-27T10:17:56;6.60;;;4.22;;
77518;SDS011;66629;47.346;19.038;2023-05-27T10:20:27;7.05;;;4.13;;
77518;SDS011;66629;47.346;19.038;2023-05-27T10:25:50;8.35;;;3.97;;
77518;SDS011;66629;47.346;19.038;2023-05-27T10:28:27;7.80;;;4.45;;
77518;SDS011;66629;47.346;19.038;2023-05-27T10:30:53;8.25;;;4.47;;
77518;SDS011;66629;47.346;19.038;2023-05-27T10:33:28;7.22;;;4.20;;
77518;SDS011;66629;47.346;19.038;2023-05-27T10:36:10;6.82;;;4.05;;
77518;SDS011;66629;47.346;19.038;2023-05-27T10:38:41;6.85;;;4.15;;
77518;SDS011;66629;47.346;19.038;2023-05-27T10:41:07;8.05;;;4.40;;
77518;SDS011;66629;47.346;19.038;2023-05-27T10:43:34;7.28;;;4.25;;
77518;SDS011;66629;47.346;19.038;2023-05-27T10:46:03;6.13;;;3.90;;
77518;SDS011;66629;47.346;19.038;2023-05-27T10:48:30;6.70;;;3.92;;
77518;SDS011;66629;47.346;19.038;2023-05-27T10:50:57;9.10;;;4.10;;
77518;SDS011;66629;47.346;19.038;2023-05-27T10:53:24;6.22;;;4.20;;
77518;SDS011;66629;47.346;19.038;2023-05-27T10:55:51;6.25;;;3.95;;
77518;SDS011;66629;47.346;19.038;2023-05-27T10:58:16;6.90;;;4.20;;
77518;SDS011;66629;47.346;19.038;2023-05-27T11:00:43;6.75;;;3.90;;
77518;SDS011;66629;47.346;19.038;2023-05-27T11:03:26;8.50;;;4.47;;
77518;SDS011;66629;47.346;19.038;2023-05-27T11:08:34;7.50;;;4.22;;
77518;SDS011;66629;47.346;19.038;2023-05-27T11:11:03;6.38;;;3.75;;
77518;SDS011;66629;47.346;19.038;2023-05-27T11:13:35;8.63;;;4.53;;
77518;SDS011;66629;47.346;19.038;2023-05-27T11:16:02;9.65;;;4.43;;
77518;SDS011;66629;47.346;19.038;2023-05-27T11:18:36;7.70;;;4.07;;
77518;SDS011;66629;47.346;19.038;2023-05-27T11:21:14;7.75;;;4.32;;
77518;SDS011;66629;47.346;19.038;2023-05-27T11:23:42;7.90;;;4.60;;
77518;SDS011;66629;47.346;19.038;2023-05-27T11:26:16;7.65;;;4.28;;
77518;SDS011;66629;47.346;19.038;2023-05-27T11:31:21;8.45;;;4.30;;
77518;SDS011;66629;47.346;19.038;2023-05-27T11:33:52;9.05;;;4.13;;
77518;SDS011;66629;47.346;19.038;2023-05-27T11:36:18;6.43;;;4.00;;
77518;SDS011;66629;47.346;19.038;2023-05-27T11:38:53;9.70;;;3.90;;
77518;SDS011;66629;47.346;19.038;2023-05-27T11:41:21;8.52;;;4.43;;
77518;SDS011;66629;47.346;19.038;2023-05-27T11:43:49;7.72;;;4.32;;
77518;SDS011;66629;47.346;19.038;2023-05-27T11:46:35;7.82;;;4.43;;
77518;SDS011;66629;47.346;19.038;2023-05-27T11:49:07;7.03;;;4.30;;
77518;SDS011;66629;47.346;19.038;2023-05-27T11:51:37;6.03;;;3.88;;
77518;SDS011;66629;47.346;19.038;2023-05-27T11:54:04;7.93;;;3.97;;
77518;SDS011;66629;47.346;19.038;2023-05-27T11:56:30;7.78;;;3.80;;
77518;SDS011;66629;47.346;19.038;2023-05-27T11:58:56;8.95;;;4.50;;
77518;SDS011;66629;47.346;19.038;2023-05-27T12:01:22;10.85;;;4.43;;
77518;SDS011;66629;47.346;19.038;2023-05-27T12:03:47;6.50;;;4.30;;
77518;SDS011;66629;47.346;19.038;2023-05-27T12:06:13;6.03;;;3.80;;
77518;SDS011;66629;47.346;19.038;2023-05-27T12:08:40;6.68;;;4.50;;
77518;SDS011;66629;47.346;19.038;2023-05-27T12:11:06;7.15;;;4.43;;
77518;SDS011;66629;47.346;19.038;2023-05-27T12:13:31;7.32;;;4.20;;
77518;SDS011;66629;47.346;19.038;2023-05-27T12:15:57;6.57;;;4.20;;
77518;SDS011;66629;47.346;19.038;2023-05-27T12:18:23;6.35;;;4.10;;
77518;SDS011;66629;47.346;19.038;2023-05-27T12:20:49;8.00;;;4.32;;
77518;SDS011;66629;47.346;19.038;2023-05-27T12:23:14;8.88;;;4.18;;
77518;SDS011;66629;47.346;19.038;2023-05-27T12:25:40;6.57;;;4.22;;
77518;SDS011;66629;47.346;19.038;2023-05-27T12:28:06;5.88;;;3.92;;
77518;SDS011;66629;47.346;19.038;2023-05-27T12:30:33;6.32;;;3.92;;
77518;SDS011;66629;47.346;19.038;2023-05-27T12:32:59;5.43;;;3.85;;
77518;SDS011;66629;47.346;19.038;2023-05-27T12:35:25;9.02;;;4.50;;
77518;SDS011;66629;47.346;19.038;2023-05-27T12:37:51;7.72;;;4.28;;
77518;SDS011;66629;47.346;19.038;2023-05-27T12:40:17;7.72;;;3.97;;
77518;SDS011;66629;47.346;19.038;2023-05-27T12:42:42;7.55;;;4.22;;
77518;SDS011;66629;47.346;19.038;2023-05-27T12:45:08;8.15;;;4.05;;
77518;SDS011;66629;47.346;19.038;2023-05-27T12:47:35;12.35;;;4.93;;
77518;SDS011;66629;47.346;19.038;2023-05-27T12:50:01;8.30;;;4.25;;
77518;SDS011;66629;47.346;19.038;2023-05-27T12:52:26;6.32;;;4.05;;
77518;SDS011;66629;47.346;19.038;2023-05-27T12:54:53;7.88;;;4.75;;
77518;SDS011;66629;47.346;19.038;2023-05-27T12:57:19;11.15;;;4.10;;
77518;SDS011;66629;47.346;19.038;2023-05-27T12:59:44;8.07;;;4.35;;
77518;SDS011;66629;47.346;19.038;2023-05-27T13:02:10;8.50;;;4.82;;
77518;SDS011;66629;47.346;19.038;2023-05-27T13:04:35;5.60;;;3.95;;
77518;SDS011;66629;47.346;19.038;2023-05-27T13:07:01;8.05;;;4.00;;
77518;SDS011;66629;47.346;19.038;2023-05-27T13:09:26;7.53;;;3.83;;
77518;SDS011;66629;47.346;19.038;2023-05-27T13:11:51;7.13;;;4.10;;
77518;SDS011;66629;47.346;19.038;2023-05-27T13:14:17;6.55;;;4.45;;
77518;SDS011;66629;47.346;19.038;2023-05-27T13:16:42;12.10;;;4.35;;
77518;SDS011;66629;47.346;19.038;2023-05-27T13:19:08;6.40;;;4.38;;
77518;SDS011;66629;47.346;19.038;2023-05-27T13:21:33;8.07;;;4.65;;
77518;SDS011;66629;47.346;19.038;2023-05-27T13:23:59;5.07;;;3.67;;
77518;SDS011;66629;47.346;19.038;2023-05-27T13:26:24;9.88;;;4.05;;
77518;SDS011;66629;47.346;19.038;2023-05-27T13:28:51;8.15;;;4.43;;
77518;SDS011;66629;47.346;19.038;2023-05-27T13:31:16;6.53;;;3.97;;
77518;SDS011;66629;47.346;19.038;2023-05-27T13:33:42;8.93;;;4.82;;
77518;SDS011;66629;47.346;19.038;2023-05-27T13:36:07;12.25;;;5.47;;
77518;SDS011;66629;47.346;19.038;2023-05-27T13:38:33;7.10;;;4.80;;
77518;SDS011;66629;47.346;19.038;2023-05-27T13:40:58;12.45;;;5.85;;
77518;SDS011;66629;47.346;19.038;2023-05-27T13:43:27;10.88;;;4.50;;
77518;SDS011;66629;47.346;19.038;2023-05-27T13:45:52;7.50;;;4.32;;
77518;SDS011;66629;47.346;19.038;2023-05-27T13:48:18;10.90;;;4.45;;
77518;SDS011;66629;47.346;19.038;2023-05-27T13:50:43;11.43;;;4.45;;
77518;SDS011;66629;47.346;19.038;2023-05-27T13:53:09;8.32;;;4.40;;
77518;SDS011;66629;47.346;19.038;2023-05-27T13:55:34;8.35;;;4.43;;
77518;SDS011;66629;47.346;19.038;2023-05-27T13:58:00;11.05;;;4.40;;
77518;SDS011;66629;47.346;19.038;2023-05-27T14:00:26;7.78;;;4.55;;
77518;SDS011;66629;47.346;19.038;2023-05-27T14:02:51;7.72;;;4.75;;
77518;SDS011;66629;47.346;19.038;2023-05-27T14:05:19;8.90;;;4.68;;
77518;SDS011;66629;47.346;19.038;2023-05-27T14:07:44;8.45;;;4.60;;
77518;SDS011;66629;47.346;19.038;2023-05-27T14:10:11;8.35;;;4.85;;
77518;SDS011;66629;47.346;19.038;2023-05-27T14:12:36;8.27;;;4.93;;
77518;SDS011;66629;47.346;19.038;2023-05-27T14:15:02;11.77;;;5.05;;
77518;SDS011;66629;47.346;19.038;2023-05-27T14:17:28;6.82;;;5.07;;
77518;SDS011;66629;47.346;19.038;2023-05-27T14:19:54;8.95;;;4.75;;
77518;SDS011;66629;47.346;19.038;2023-05-27T14:22:21;8.18;;;4.85;;
77518;SDS011;66629;47.346;19.038;2023-05-27T14:24:47;8.57;;;5.15;;
77518;SDS011;66629;47.346;19.038;2023-05-27T14:27:13;9.40;;;4.75;;
77518;SDS011;66629;47.346;19.038;2023-05-27T14:29:38;8.13;;;5.20;;
77518;SDS011;66629;47.346;19.038;2023-05-27T14:32:04;12.07;;;6.93;;
77518;SDS011;66629;47.346;19.038;2023-05-27T14:34:30;8.27;;;4.93;;
77518;SDS011;66629;47.346;19.038;2023-05-27T14:36:56;7.72;;;4.60;;
77518;SDS011;66629;47.346;19.038;2023-05-27T14:39:21;8.32;;;4.97;;